VEAT/IXA METAR and TAF weather

Enter ICAO airport designator
Station Type Date Time Source
VEAT METAR 2019/04/25 15:30 UTC NOAA

VEAT 251530Z 00000KT 3500 BR NSC 29/26 Q1008 BECMG 3000 BR


Station Type Date Time Source
VEAT Decoded METAR 2019/04/25 15:30 UTC NOAA

Agartala, India (VEAT) 23-53N 091-15E 16M
Apr 25, 2019 - 11:30 AM EDT / 2019.04.25 1530 UTC
Wind: Calm:0
Visibility: 2 mile(s):0
Weather: mist
Temperature: 84 F (29 C)
Dew Point: 78 F (26 C)
Relative Humidity: 83%
Pressure (altimeter): 29.77 in. Hg (1008 hPa)
ob: VEAT 251530Z 00000KT 3500 BR NSC 29/26 Q1008 BECMG 3000 BR
cycle: 15

Station Type Date Time Source
VEAT TAF 2013/07/19 12:00 UTC NOAA

TAF VEAT 190900Z 1912/1921 16008KT 5000 HZ SCT018 FEW030CB BKN100
TEMPO 1912/1921 3000 -TSRA SCT015 FEW025CB OVC090

Example: see airport list